Time;durP1;ratioP1;P1;durP2;ratioP2;P2;SDS_P1;SDS_P2;PMS_P1;PMS_P2;Temp;Humidity;BMP_temperature;BMP_pressure;BME280_temperature;BME280_humidity;BME280_pressure;Samples;Min_cycle;Max_cycle;Signal;HPM_P1;HPM_P2
2023/04/16 00:00:46;;;;;;;1.10;1.00;;;;;;;6.48;100.00;99010.63;5081710;28;20221;-79
2023/04/16 00:03:13;;;;;;;1.60;1.20;;;;;;;6.43;100.00;99011.25;5114932;28;20192;-80
2023/04/16 00:05:40;;;;;;;1.60;1.50;;;;;;;6.37;100.00;99008.59;5114564;28;20305;-80
2023/04/16 00:08:07;;;;;;;1.73;1.63;;;;;;;6.35;100.00;99006.13;5115226;28;20212;-79
2023/04/16 00:10:34;;;;;;;1.33;1.20;;;;;;;6.29;100.00;99001.66;5115373;28;20189;-81
2023/04/16 00:13:01;;;;;;;1.30;1.20;;;;;;;6.26;100.00;99003.91;5099404;28;20207;-80
2023/04/16 00:15:27;;;;;;;2.43;1.40;;;;;;;6.21;100.00;99007.19;5116792;28;20274;-80
2023/04/16 00:17:54;;;;;;;1.43;1.33;;;;;;;6.17;100.00;99006.78;5116360;28;20199;-79
2023/04/16 00:20:21;;;;;;;1.30;1.20;;;;;;;6.12;100.00;99019.06;5116889;28;20190;-80
2023/04/16 00:22:47;;;;;;;1.50;1.40;;;;;;;6.07;100.00;99001.06;5117434;28;20198;-80
2023/04/16 00:25:14;;;;;;;1.40;1.30;;;;;;;5.94;100.00;99018.84;5102519;28;20654;-80
2023/04/16 00:27:40;;;;;;;1.60;1.50;;;;;;;5.88;100.00;99022.34;5117314;28;20188;-80
2023/04/16 00:30:07;;;;;;;1.40;1.30;;;;;;;5.82;100.00;99018.63;5117800;28;20191;-80
2023/04/16 00:32:34;;;;;;;2.63;1.43;;;;;;;5.78;100.00;99019.25;5100924;28;20211;-80
2023/04/16 00:35:01;;;;;;;1.63;1.50;;;;;;;5.66;100.00;99011.88;5118383;28;20233;-79
2023/04/16 00:37:29;;;;;;;1.27;1.17;;;;;;;5.61;100.00;99016.97;5118505;28;20192;-80
2023/04/16 00:39:55;;;;;;;1.70;1.60;;;;;;;5.57;100.00;99014.91;5095551;28;20231;-80
2023/04/16 00:42:22;;;;;;;1.50;1.20;;;;;;;5.50;100.00;99014.09;5118758;28;20196;-80
2023/04/16 00:44:49;;;;;;;1.70;1.20;;;;;;;5.47;100.00;99014.50;5118721;28;20200;-80
2023/04/16 00:47:15;;;;;;;1.07;0.97;;;;;;;5.42;100.00;99012.44;5117709;28;20201;-79
2023/04/16 00:49:42;;;;;;;1.50;1.03;;;;;;;5.39;100.00;99017.34;5119279;28;20542;-80
2023/04/16 00:52:10;;;;;;;1.53;1.30;;;;;;;5.30;100.00;99022.03;5100717;28;20211;-80
2023/04/16 00:54:37;;;;;;;1.90;1.30;;;;;;;5.30;100.00;99028.16;5119934;28;20184;-80
2023/04/16 00:57:05;;;;;;;1.00;1.00;;;;;;;5.41;100.00;99029.41;5119190;28;20188;-80
2023/04/16 00:59:31;;;;;;;1.20;1.10;;;;;;;5.19;100.00;99031.38;5099841;28;20229;-80
2023/04/16 01:01:58;;;;;;;1.10;1.10;;;;;;;5.04;100.00;99033.38;5101482;28;20192;-80
2023/04/16 01:04:25;;;;;;;1.17;1.07;;;;;;;4.97;100.00;99037.03;5110075;28;20196;-79
2023/04/16 01:06:52;;;;;;;1.40;1.30;;;;;;;4.88;100.00;99039.84;5095227;28;20196;-79
2023/04/16 01:09:19;;;;;;;1.40;1.30;;;;;;;4.86;100.00;99036.56;5110301;28;20183;-79
2023/04/16 01:11:45;;;;;;;1.60;1.20;;;;;;;4.85;100.00;99032.25;5106681;28;20211;-79
2023/04/16 01:14:12;;;;;;;1.33;1.23;;;;;;;4.78;100.00;99035.91;5111768;28;20195;-78
2023/04/16 01:16:38;;;;;;;1.20;1.10;;;;;;;4.68;100.00;99040.75;5093675;28;20270;-79
2023/04/16 01:19:05;;;;;;;1.30;1.20;;;;;;;4.62;100.00;99041.56;5114828;28;20187;-80
2023/04/16 01:21:32;;;;;;;1.27;1.17;;;;;;;4.55;100.00;99046.81;5080848;28;20195;-80
2023/04/16 01:24:03;;;;;;;1.40;1.30;;;;;;;4.52;100.00;99043.75;5115751;28;20188;-80
2023/04/16 01:26:30;;;;;;;1.60;1.50;;;;;;;4.42;100.00;99044.09;5115911;28;20184;-79
2023/04/16 01:28:58;;;;;;;1.50;1.40;;;;;;;4.37;100.00;99042.00;5118842;28;20255;-81
2023/04/16 01:31:25;;;;;;;1.53;1.43;;;;;;;4.32;100.00;99046.25;5112187;28;20196;-79
2023/04/16 01:34:00;;;;;;;3.87;3.47;;;;;;;4.31;100.00;99036.66;5096655;28;20202;-80
2023/04/16 01:36:27;;;;;;;3.20;2.90;;;;;;;4.23;100.00;99047.41;5110646;28;20191;-80
2023/04/16 01:38:54;;;;;;;1.80;1.70;;;;;;;4.14;100.00;99044.09;5110116;28;20757;-81
2023/04/16 01:41:22;;;;;;;1.93;1.50;;;;;;;4.07;100.00;99045.84;5113296;28;20194;-80
2023/04/16 01:43:49;;;;;;;2.10;1.90;;;;;;;3.99;100.00;99059.25;5097593;28;20195;-79
2023/04/16 01:46:29;;;;;;;2.23;2.03;;;;;;;3.93;100.00;99058.19;5096910;28;20244;-79
2023/04/16 01:48:57;;;;;;;2.40;2.20;;;;;;;3.91;100.00;99054.91;5119135;27;20222;-79
2023/04/16 01:51:23;;;;;;;2.87;2.63;;;;;;;3.95;100.00;99058.00;5087961;28;20237;-79
2023/04/16 01:53:50;;;;;;;2.50;2.30;;;;;;;3.94;100.00;99056.34;5116385;28;20214;-79
2023/04/16 01:56:17;;;;;;;2.37;2.13;;;;;;;3.94;100.00;99056.34;5097447;28;20196;-79
2023/04/16 01:58:45;;;;;;;2.20;2.00;;;;;;;3.88;100.00;99052.63;5106205;28;20200;-79
2023/04/16 02:01:13;;;;;;;2.40;2.20;;;;;;;3.84;100.00;99053.19;5102766;28;20195;-79
2023/04/16 02:03:40;;;;;;;2.40;2.20;;;;;;;3.82;100.00;99056.06;5115471;28;20187;-79
2023/04/16 02:06:07;;;;;;;2.30;2.10;;;;;;;3.78;100.00;99048.69;5099982;28;20302;-79
2023/04/16 02:08:35;;;;;;;2.73;2.20;;;;;;;3.76;100.00;99054.16;5086716;28;20240;-80
2023/04/16 02:11:02;;;;;;;2.30;1.97;;;;;;;3.74;100.00;99055.34;5096672;28;20258;-82
2023/04/16 02:13:28;;;;;;;2.50;2.20;;;;;;;3.69;100.00;99050.63;5119075;28;20271;-80
2023/04/16 02:15:55;;;;;;;2.33;2.13;;;;;;;3.75;100.00;99059.66;5090605;28;20200;-81
2023/04/16 02:18:48;;;;;;;2.17;1.97;;;;;;;3.63;100.00;99053.22;5109926;28;20207;-79
2023/04/16 02:21:16;;;;;;;2.20;2.00;;;;;;;3.63;100.00;99053.22;5107649;28;20742;-79
2023/04/16 02:23:46;;;;;;;2.33;2.13;;;;;;;3.50;100.00;99046.75;5107312;28;20337;-79
2023/04/16 02:26:13;;;;;;;2.20;2.00;;;;;;;3.46;100.00;99052.63;5100219;28;20263;-79
2023/04/16 02:28:39;;;;;;;2.20;2.00;;;;;;;3.33;100.00;99052.50;5087252;28;20190;-80
2023/04/16 02:31:09;;;;;;;1.90;1.80;;;;;;;3.30;100.00;99063.47;5102660;28;20203;-79
2023/04/16 02:33:41;;;;;;;2.03;1.90;;;;;;;3.32;100.00;99059.63;5105244;28;20326;-79
2023/04/16 02:36:09;;;;;;;2.00;1.77;;;;;;;3.30;100.00;99052.88;5101137;28;20244;-78
2023/04/16 02:38:36;;;;;;;2.20;1.93;;;;;;;3.31;100.00;99057.97;5115802;28;20183;-79
2023/04/16 02:41:03;;;;;;;2.20;2.00;;;;;;;3.30;100.00;99061.66;5111194;28;20199;-80
2023/04/16 02:43:30;;;;;;;1.97;1.87;;;;;;;3.30;100.00;99061.66;5109199;28;20203;-79
2023/04/16 02:45:58;;;;;;;1.80;1.70;;;;;;;3.28;100.00;99061.00;5103734;28;20672;-80
2023/04/16 02:48:25;;;;;;;1.57;1.47;;;;;;;3.30;100.00;99066.13;5120285;28;20686;-79
2023/04/16 02:50:51;;;;;;;1.87;1.70;;;;;;;3.32;100.00;99067.56;5101335;28;20257;-80
2023/04/16 02:53:18;;;;;;;1.70;1.60;;;;;;;3.27;100.00;99072.59;5103156;28;20195;-80
2023/04/16 02:55:52;;;;;;;2.10;1.90;;;;;;;3.30;100.00;99074.06;5086063;28;20223;-80
2023/04/16 02:58:21;;;;;;;1.77;1.67;;;;;;;3.33;100.00;99078.97;5102458;28;20194;-80
2023/04/16 03:00:47;;;;;;;1.70;1.60;;;;;;;3.24;100.00;99075.63;5085452;28;20202;-80
2023/04/16 03:03:14;;;;;;;1.70;1.60;;;;;;;3.22;100.00;99076.81;5102126;28;20276;-79
2023/04/16 03:05:41;;;;;;;1.90;1.80;;;;;;;3.13;100.00;99083.22;5098867;28;20739;-80
2023/04/16 03:08:09;;;;;;;1.77;1.67;;;;;;;3.07;100.00;99074.19;5120373;28;20184;-79
2023/04/16 03:10:36;;;;;;;1.93;1.73;;;;;;;3.07;100.00;99084.78;5120066;28;20218;-79
2023/04/16 03:13:03;;;;;;;1.73;1.63;;;;;;;3.06;100.00;99085.78;5094941;28;20197;-79
2023/04/16 03:15:30;;;;;;;2.00;1.80;;;;;;;3.08;100.00;99095.16;5119880;28;20262;-80
2023/04/16 03:17:56;;;;;;;1.70;1.60;;;;;;;3.09;100.00;99085.41;5119934;28;20192;-80
2023/04/16 03:20:23;;;;;;;1.50;1.40;;;;;;;3.08;100.00;99089.06;5118593;28;20183;-79
2023/04/16 03:22:51;;;;;;;2.77;2.00;;;;;;;3.07;100.00;99084.78;5119776;28;20200;-80
2023/04/16 03:25:18;;;;;;;2.10;1.70;;;;;;;3.05;100.00;99070.91;5101473;28;20192;-80
2023/04/16 03:27:44;;;;;;;1.73;1.63;;;;;;;2.99;100.00;99083.03;5120214;28;20191;-80
2023/04/16 03:30:13;;;;;;;1.77;1.67;;;;;;;3.03;100.00;99092.25;5101906;28;21001;-79
2023/04/16 03:32:39;;;;;;;2.10;1.90;;;;;;;3.03;100.00;99094.09;5100966;28;20207;-80
2023/04/16 03:35:07;;;;;;;2.03;1.83;;;;;;;2.99;100.00;99092.81;5085124;28;20192;-80
2023/04/16 03:37:34;;;;;;;2.23;2.03;;;;;;;2.98;100.00;99102.59;5103347;28;20184;-80
2023/04/16 03:40:01;;;;;;;4.00;3.27;;;;;;;2.94;100.00;99097.84;5108134;28;20223;-79
2023/04/16 03:42:29;;;;;;;5.47;4.97;;;;;;;2.96;100.00;99103.78;5102253;28;20686;-80
2023/04/16 03:44:56;;;;;;;8.27;7.47;;;;;;;3.05;100.00;99108.78;5109510;28;20195;-80
2023/04/16 03:47:23;;;;;;;6.43;5.83;;;;;;;3.02;100.00;99113.63;5109635;28;20260;-79
2023/04/16 03:49:53;;;;;;;5.80;5.30;;;;;;;3.08;100.00;99123.47;5100479;28;20191;-80
2023/04/16 03:52:20;;;;;;;7.47;6.77;;;;;;;3.11;100.00;99125.75;5119361;28;20191;-79
2023/04/16 03:54:46;;;;;;;7.50;6.80;;;;;;;3.10;100.00;99124.09;5118244;28;20266;-79
2023/04/16 03:57:25;;;;;;;6.50;6.00;;;;;;;3.18;100.00;99131.13;5088451;28;20203;-80
2023/04/16 03:59:56;;;;;;;5.90;5.40;;;;;;;3.26;100.00;99129.22;5095312;28;20204;-79
2023/04/16 04:02:25;;;;;;;6.00;5.50;;;;;;;3.35;100.00;99143.16;5103612;28;20213;-80
2023/04/16 04:04:52;;;;;;;5.53;5.03;;;;;;;3.39;100.00;99152.38;5106079;28;20272;-80
2023/04/16 04:07:19;;;;;;;4.80;4.40;;;;;;;3.53;100.00;99143.59;5100391;28;20217;-80
2023/04/16 04:09:45;;;;;;;4.30;4.00;;;;;;;3.47;100.00;99142.50;5116083;28;20187;-80
2023/04/16 04:12:13;;;;;;;5.00;4.60;;;;;;;3.54;100.00;99145.22;5084771;28;20198;-80
2023/04/16 04:14:42;;;;;;;4.70;4.20;;;;;;;3.58;100.00;99153.63;5103600;28;20658;-80
2023/04/16 04:17:08;;;;;;;4.73;4.33;;;;;;;3.66;100.00;99156.16;5100912;28;20719;-79
2023/04/16 04:19:35;;;;;;;5.40;4.43;;;;;;;3.70;100.00;99155.59;5097263;28;20191;-79
2023/04/16 04:22:07;;;;;;;6.20;5.70;;;;;;;3.78;100.00;99154.69;5098817;28;20204;-79
2023/04/16 04:24:35;;;;;;;5.70;5.13;;;;;;;3.85;100.00;99155.56;5110827;28;20210;-79
2023/04/16 04:27:02;;;;;;;6.53;5.93;;;;;;;3.92;100.00;99159.06;5100644;28;20237;-80
2023/04/16 04:29:30;;;;;;;9.43;8.53;;;;;;;3.99;100.00;99162.63;5102219;28;20183;-79
2023/04/16 04:31:57;;;;;;;8.53;7.73;;;;;;;4.05;100.00;99161.06;5092181;28;20202;-80
2023/04/16 04:34:24;;;;;;;8.80;7.90;;;;;;;4.13;100.00;99175.00;5106182;28;20633;-80
2023/04/16 04:36:53;;;;;;;6.40;5.80;;;;;;;4.21;100.00;99172.22;5100462;28;20203;-80
2023/04/16 04:39:20;;;;;;;6.60;6.00;;;;;;;4.32;100.00;99178.84;5117214;28;20234;-79
2023/04/16 04:41:48;;;;;;;5.17;4.50;;;;;;;4.43;100.00;99184.44;5102070;28;20665;-79
2023/04/16 04:44:17;;;;;;;4.00;3.53;;;;;;;4.50;100.00;99191.66;5098859;28;20228;-79
2023/04/16 04:46:43;;;;;;;4.10;3.60;;;;;;;4.52;100.00;99194.94;5100041;28;20219;-79
2023/04/16 04:49:10;;;;;;;3.70;3.37;;;;;;;4.58;100.00;99197.63;5117599;28;20721;-79
2023/04/16 04:51:37;;;;;;;3.20;2.90;;;;;;;4.68;100.00;99199.97;5099111;28;20286;-80
2023/04/16 04:54:04;;;;;;;2.97;2.73;;;;;;;4.76;100.00;99208.59;5099972;28;20203;-79
2023/04/16 04:56:30;;;;;;;3.27;2.97;;;;;;;4.86;100.00;99202.97;5117267;27;20184;-79
2023/04/16 04:58:57;;;;;;;3.30;2.63;;;;;;;4.91;100.00;99205.03;5096177;28;20207;-80
2023/04/16 05:01:24;;;;;;;2.70;2.50;;;;;;;5.03;100.00;99211.47;5099533;28;20219;-79
2023/04/16 05:03:51;;;;;;;2.83;2.60;;;;;;;5.15;100.00;99207.25;5116133;28;20220;-79
2023/04/16 05:06:17;;;;;;;5.43;4.93;;;;;;;5.23;100.00;99210.56;5116380;28;20260;-79
2023/04/16 05:08:44;;;;;;;5.13;4.73;;;;;;;5.38;100.00;99217.59;5116766;28;20187;-80
2023/04/16 05:11:11;;;;;;;4.47;4.07;;;;;;;5.52;100.00;99227.28;5103121;28;20192;-79
2023/04/16 05:13:37;;;;;;;5.03;4.27;;;;;;;5.68;100.00;99224.31;5116439;28;20207;-79
2023/04/16 05:16:04;;;;;;;3.97;3.60;;;;;;;5.84;100.00;99228.44;5116603;28;20275;-81
2023/04/16 05:18:32;;;;;;;3.57;3.27;;;;;;;6.02;100.00;99234.88;5117014;28;20188;-79
2023/04/16 05:20:58;;;;;;;3.53;3.23;;;;;;;6.14;100.00;99221.81;5117420;28;20211;-80
2023/04/16 05:23:25;;;;;;;3.07;2.70;;;;;;;6.26;100.00;99228.19;5117072;28;20577;-82
2023/04/16 05:25:51;;;;;;;3.60;3.30;;;;;;;6.45;100.00;99232.72;5116591;28;20192;-80
2023/04/16 05:28:18;;;;;;;2.47;2.27;;;;;;;6.60;100.00;99233.38;5119050;27;20674;-79
2023/04/16 05:30:45;;;;;;;2.23;2.10;;;;;;;6.73;100.00;99227.22;5116979;28;21061;-80
2023/04/16 05:33:11;;;;;;;2.60;2.10;;;;;;;6.90;100.00;99239.13;5100439;28;20211;-80
2023/04/16 05:35:38;;;;;;;1.97;1.87;;;;;;;7.03;100.00;99232.97;5116760;28;20671;-80
2023/04/16 05:38:05;;;;;;;1.80;1.70;;;;;;;7.21;100.00;99235.81;5116263;28;20271;-80
2023/04/16 05:40:31;;;;;;;1.70;1.60;;;;;;;7.38;100.00;99238.84;5081300;28;20224;-80
2023/04/16 05:42:58;;;;;;;1.40;1.30;;;;;;;7.52;100.00;99235.13;5115458;28;20226;-80
2023/04/16 05:45:24;;;;;;;2.03;1.93;;;;;;;7.68;100.00;99242.66;5115344;28;20252;-80
2023/04/16 05:47:53;;;;;;;1.80;1.70;;;;;;;7.85;100.00;99241.16;5115057;28;20237;-80
2023/04/16 05:50:20;;;;;;;1.90;1.80;;;;;;;7.98;100.00;99237.59;5114503;28;20657;-80
2023/04/16 05:52:47;;;;;;;2.10;1.90;;;;;;;8.17;100.00;99238.53;5113864;28;20183;-80
2023/04/16 05:55:13;;;;;;;1.80;1.70;;;;;;;8.35;100.00;99233.38;5095790;28;20287;-79
2023/04/16 05:57:40;;;;;;;1.70;1.60;;;;;;;8.53;100.00;99235.31;5114136;28;20200;-80
2023/04/16 06:00:07;;;;;;;2.10;1.90;;;;;;;8.72;100.00;99235.16;5114985;28;20191;-82
2023/04/16 06:02:39;;;;;;;1.63;1.53;;;;;;;8.90;100.00;99241.59;5115657;28;20198;-80
2023/04/16 06:05:07;;;;;;;2.17;1.63;;;;;;;9.11;100.00;99235.84;5114403;28;20207;-80
2023/04/16 06:07:34;;;;;;;1.60;1.50;;;;;;;9.17;100.00;99241.16;5115433;28;20246;-80
2023/04/16 06:10:00;;;;;;;1.70;1.60;;;;;;;9.41;100.00;99244.81;5115832;28;20222;-80
2023/04/16 06:12:27;;;;;;;1.60;1.50;;;;;;;9.54;100.00;99243.88;5115655;28;20232;-80
2023/04/16 06:14:53;;;;;;;2.13;2.00;;;;;;;9.71;100.00;99240.38;5116263;28;20199;-79
2023/04/16 06:17:20;;;;;;;2.60;2.07;;;;;;;9.90;100.00;99246.53;5115975;28;20188;-80
2023/04/16 06:19:47;;;;;;;2.53;2.10;;;;;;;10.01;100.00;99255.66;5115808;28;20221;-80
2023/04/16 06:22:13;;;;;;;3.63;3.33;;;;;;;10.24;100.00;99247.78;5100312;28;20195;-80
2023/04/16 06:24:40;;;;;;;3.20;3.00;;;;;;;10.43;100.00;99254.72;5113931;28;20270;-80
2023/04/16 06:27:07;;;;;;;2.80;2.60;;;;;;;10.60;100.00;99260.25;5114747;28;20215;-80
2023/04/16 06:29:33;;;;;;;1.80;1.70;;;;;;;10.77;100.00;99258.56;5115457;28;20187;-80
2023/04/16 06:32:07;;;;;;;2.40;2.20;;;;;;;11.01;100.00;99264.78;5111796;28;20182;-80
2023/04/16 06:34:33;;;;;;;2.77;2.57;;;;;;;11.15;100.00;99255.44;5106622;28;20738;-80
2023/04/16 06:37:00;;;;;;;2.30;2.10;;;;;;;11.24;100.00;99253.25;5124348;28;20187;-81
2023/04/16 06:39:27;;;;;;;2.60;2.40;;;;;;;11.40;100.00;99260.59;5124185;28;20222;-81
2023/04/16 06:41:53;;;;;;;3.57;3.27;;;;;;;11.44;100.00;99264.44;5121254;28;20184;-80
2023/04/16 06:44:20;;;;;;;3.37;2.80;;;;;;;11.37;100.00;99258.41;5108830;28;20217;-81
2023/04/16 06:46:47;;;;;;;2.87;2.67;;;;;;;11.42;100.00;99258.50;5123662;28;20244;-80
2023/04/16 06:49:14;;;;;;;3.20;2.83;;;;;;;11.64;100.00;99266.75;5122009;28;20192;-81
2023/04/16 06:51:41;;;;;;;5.07;4.67;;;;;;;11.66;100.00;99270.03;5119945;28;20186;-80
2023/04/16 06:54:08;;;;;;;4.07;3.77;;;;;;;11.84;100.00;99277.97;5103417;28;20273;-80
2023/04/16 06:56:36;;;;;;;3.83;3.53;;;;;;;11.92;100.00;99280.28;5124989;28;20247;-81
2023/04/16 06:59:03;;;;;;;4.00;3.70;;;;;;;11.96;100.00;99276.06;5121066;28;20274;-80
2023/04/16 07:01:32;;;;;;;3.40;3.10;;;;;;;12.22;100.00;99274.75;5122229;28;20681;-80
2023/04/16 07:03:59;;;;;;;3.60;3.30;;;;;;;12.40;100.00;99279.94;5122329;28;20187;-80
2023/04/16 07:06:26;;;;;;;3.20;2.87;;;;;;;12.65;100.00;99266.94;5120336;28;20193;-80
2023/04/16 07:08:53;;;;;;;5.53;5.03;;;;;;;12.82;100.00;99290.38;5120340;28;20184;-80
2023/04/16 07:11:20;;;;;;;3.30;3.10;;;;;;;12.96;100.00;99292.50;5122733;28;20219;-81
2023/04/16 07:13:46;;;;;;;2.63;2.43;;;;;;;12.61;100.00;99303.44;5120535;28;20239;-80
2023/04/16 07:16:13;;;;;;;3.40;3.10;;;;;;;12.77;100.00;99299.16;5120480;28;20233;-80
2023/04/16 07:18:40;;;;;;;3.43;2.90;;;;;;;12.44;100.00;99301.75;5118417;28;20180;-80
2023/04/16 07:21:07;;;;;;;3.00;2.80;;;;;;;12.06;100.00;99311.19;5101269;28;20195;-80
2023/04/16 07:23:34;;;;;;;3.50;3.20;;;;;;;12.50;100.00;99304.31;5100226;28;20176;-80
2023/04/16 07:26:01;;;;;;;2.80;2.60;;;;;;;12.87;100.00;99304.72;5119336;28;20196;-80
2023/04/16 07:28:28;;;;;;;3.43;3.17;;;;;;;11.83;100.00;99304.00;5083698;28;20196;-81
2023/04/16 07:30:54;;;;;;;3.33;3.10;;;;;;;12.00;100.00;99312.13;5118696;28;20186;-80
2023/04/16 07:33:21;;;;;;;3.73;3.43;;;;;;;12.19;100.00;99313.63;5120032;28;20204;-81
2023/04/16 07:35:50;;;;;;;3.77;3.47;;;;;;;12.31;100.00;99313.59;5117865;28;20651;-80
2023/04/16 07:38:17;;;;;;;3.17;2.97;;;;;;;12.62;100.00;99313.13;5118399;28;20272;-80
2023/04/16 07:40:45;;;;;;;3.77;3.47;;;;;;;12.89;100.00;99318.72;5100796;28;20242;-81
2023/04/16 07:43:12;;;;;;;3.33;3.10;;;;;;;13.35;100.00;99324.91;5100734;28;20592;-79
2023/04/16 07:45:39;;;;;;;3.57;3.27;;;;;;;12.93;100.00;99325.25;5100018;28;20180;-81
2023/04/16 07:48:07;;;;;;;3.77;3.47;;;;;;;13.51;100.00;99318.72;5117619;28;20560;-80
2023/04/16 07:50:33;;;;;;;3.30;3.00;;;;;;;14.01;100.00;99319.44;5100661;28;20192;-80
2023/04/16 07:53:00;;;;;;;3.73;3.43;;;;;;;14.24;100.00;99321.06;5118363;28;20185;-80
2023/04/16 07:55:26;;;;;;;3.70;3.40;;;;;;;14.81;100.00;99332.28;5118265;28;20232;-78
2023/04/16 07:57:53;;;;;;;4.07;3.77;;;;;;;14.98;97.58;99324.88;5117955;28;20187;-80
2023/04/16 08:00:20;;;;;;;3.07;2.87;;;;;;;15.35;94.95;99318.75;5098239;28;20215;-77
2023/04/16 08:02:47;;;;;;;3.63;3.33;;;;;;;15.57;92.42;99318.66;5115829;28;20185;-77
2023/04/16 08:05:14;;;;;;;3.60;3.30;;;;;;;15.57;90.19;99321.34;5115697;28;20233;-76
2023/04/16 08:07:41;;;;;;;3.67;3.37;;;;;;;15.50;90.43;99318.03;5113909;28;20190;-76
2023/04/16 08:10:07;;;;;;;3.33;3.13;;;;;;;15.67;89.62;99321.44;5114579;28;20198;-77
2023/04/16 08:12:34;;;;;;;3.20;3.00;;;;;;;15.46;88.10;99317.72;5102033;28;20560;-79
2023/04/16 08:15:01;;;;;;;4.10;3.80;;;;;;;15.34;86.52;99325.22;5108788;28;20747;-77
2023/04/16 08:17:28;;;;;;;3.10;2.90;;;;;;;15.36;85.70;99326.56;5108894;28;20191;-77
2023/04/16 08:19:55;;;;;;;3.33;3.03;;;;;;;15.16;85.89;99322.91;5113945;28;20194;-78
2023/04/16 08:22:22;;;;;;;3.20;3.00;;;;;;;15.48;86.42;99328.28;5114646;28;20295;-77
2023/04/16 08:24:48;;;;;;;3.10;2.90;;;;;;;15.68;83.95;99323.84;5114345;28;20209;-77
2023/04/16 08:27:15;;;;;;;3.63;3.20;;;;;;;15.64;83.20;99316.53;5114230;28;20199;-77
2023/04/16 08:29:46;;;;;;;3.37;3.07;;;;;;;15.51;85.16;99316.97;5107400;28;20201;-77
2023/04/16 08:32:13;;;;;;;3.50;3.20;;;;;;;15.46;84.47;99309.63;5098922;28;20191;-77
2023/04/16 08:34:40;;;;;;;3.30;3.10;;;;;;;15.36;85.35;99317.66;5113885;28;20573;-78
2023/04/16 08:37:07;;;;;;;3.63;3.33;;;;;;;15.13;85.88;99316.13;5097099;28;20679;-77
2023/04/16 08:39:34;;;;;;;3.80;3.50;;;;;;;15.16;86.73;99318.31;5113841;28;20634;-77
2023/04/16 08:42:04;;;;;;;4.47;4.07;;;;;;;15.06;86.81;99317.41;5112583;28;20212;-77
2023/04/16 08:44:33;;;;;;;4.30;4.00;;;;;;;15.07;86.60;99325.22;5114284;28;20232;-77
2023/04/16 08:47:00;;;;;;;3.90;3.50;;;;;;;15.18;87.08;99328.84;5101173;28;20201;-77
2023/04/16 08:49:28;;;;;;;3.80;3.50;;;;;;;15.35;85.41;99318.75;5113959;28;20186;-77
2023/04/16 08:51:55;;;;;;;3.63;3.33;;;;;;;15.46;84.16;99328.53;5096009;28;20596;-77
2023/04/16 08:54:36;;;;;;;9.23;8.53;;;;;;;15.29;84.58;99327.84;5108775;28;20218;-79
2023/04/16 08:57:05;;;;;;;3.83;3.50;;;;;;;15.57;82.37;99329.47;5114661;28;20190;-78
2023/04/16 08:59:32;;;;;;;3.53;3.23;;;;;;;16.07;82.23;99339.75;5112275;28;20761;-78
2023/04/16 09:01:59;;;;;;;4.23;3.93;;;;;;;15.93;83.21;99341.31;5091532;28;20191;-78
2023/04/16 09:04:29;;;;;;;3.97;3.67;;;;;;;16.06;81.97;99341.66;5095212;28;20192;-78
2023/04/16 09:06:57;;;;;;;4.00;3.70;;;;;;;16.00;78.76;99344.59;5113942;28;20250;-78
2023/04/16 09:09:25;;;;;;;4.00;3.70;;;;;;;15.82;78.53;99346.63;5110018;28;20192;-78
2023/04/16 09:11:54;;;;;;;3.63;3.33;;;;;;;15.46;76.70;99344.72;5097021;28;20188;-78
2023/04/16 09:14:21;;;;;;;3.37;3.07;;;;;;;15.34;79.51;99353.03;5107071;28;20216;-79
2023/04/16 09:16:48;;;;;;;3.43;3.13;;;;;;;15.44;76.42;99353.06;5114687;28;20195;-79
2023/04/16 09:19:15;;;;;;;3.07;2.87;;;;;;;15.63;77.13;99345.41;5114316;28;20546;-79
2023/04/16 09:21:45;;;;;;;3.50;3.20;;;;;;;15.56;78.16;99352.94;5114987;28;20668;-78
2023/04/16 09:24:12;;;;;;;3.53;3.33;;;;;;;14.39;80.26;99358.19;5101106;28;20186;-79
2023/04/16 09:26:42;;;;;;;3.60;3.30;;;;;;;14.41;81.67;99358.78;5096843;28;20193;-78
2023/04/16 09:29:09;;;;;;;3.47;3.20;;;;;;;14.19;81.88;99357.91;5099521;28;20269;-79
2023/04/16 09:31:36;;;;;;;3.53;3.30;;;;;;;14.59;80.40;99360.34;5114601;28;20243;-79
2023/04/16 09:34:07;;;;;;;4.63;3.70;;;;;;;14.60;81.25;99368.19;5114252;28;20620;-79
2023/04/16 09:36:35;;;;;;;4.07;3.77;;;;;;;14.90;80.12;99362.28;5096570;28;20293;-79
2023/04/16 09:39:02;;;;;;;11.60;10.70;;;;;;;15.01;78.11;99364.03;5096593;28;20237;-79
2023/04/16 09:41:34;;;;;;;4.03;3.73;;;;;;;15.21;78.55;99371.53;5114154;28;20207;-78
2023/04/16 09:44:03;;;;;;;3.80;3.50;;;;;;;14.63;78.23;99364.97;5107238;28;20186;-78
2023/04/16 09:46:30;;;;;;;8.70;8.10;;;;;;;14.90;80.21;99365.81;5113868;28;20209;-79
2023/04/16 09:48:57;;;;;;;4.00;3.70;;;;;;;15.35;80.00;99356.53;5114207;28;20269;-79
2023/04/16 09:51:27;;;;;;;3.30;3.10;;;;;;;15.43;78.34;99366.84;5113688;28;20662;-78
2023/04/16 09:53:55;;;;;;;3.87;3.60;;;;;;;15.38;78.44;99369.50;5113577;28;20612;-79
2023/04/16 09:56:24;;;;;;;5.27;4.87;;;;;;;15.33;79.65;99364.06;5110656;28;20675;-79
2023/04/16 09:58:56;;;;;;;7.23;6.73;;;;;;;16.04;76.59;99370.03;5097671;28;20212;-79
2023/04/16 10:01:24;;;;;;;3.50;3.30;;;;;;;16.85;74.82;99376.63;5114033;28;20191;-79
2023/04/16 10:03:53;;;;;;;20.27;18.70;;;;;;;16.78;71.68;99364.44;5099727;28;20213;-78
2023/04/16 10:06:22;;;;;;;6.93;6.40;;;;;;;17.45;70.01;99369.69;5098387;28;20239;-79
2023/04/16 10:08:50;;;;;;;3.40;3.20;;;;;;;17.76;67.31;99365.09;5112175;28;20190;-79
2023/04/16 10:11:17;;;;;;;2.60;2.40;;;;;;;17.87;65.34;99362.09;5095237;28;20563;-79
2023/04/16 10:13:45;;;;;;;3.40;3.20;;;;;;;17.87;65.37;99361.31;5099741;28;20191;-79
2023/04/16 10:16:12;;;;;;;2.90;2.70;;;;;;;17.30;64.90;99367.78;5113899;28;20187;-80
2023/04/16 10:18:41;;;;;;;2.93;2.67;;;;;;;17.09;66.00;99356.09;5113799;28;20206;-79
2023/04/16 10:21:10;;;;;;;8.13;7.43;;;;;;;16.23;68.90;99360.41;5113627;28;20333;-78
2023/04/16 10:23:38;;;;;;;3.20;3.00;;;;;;;16.91;68.18;99359.31;5113321;28;20187;-79
2023/04/16 10:26:05;;;;;;;2.97;2.77;;;;;;;16.70;67.42;99358.44;5106780;28;20247;-79
2023/04/16 10:28:34;;;;;;;2.77;2.57;;;;;;;15.67;67.33;99349.25;5099196;28;20662;-78
2023/04/16 10:31:03;;;;;;;3.00;2.50;;;;;;;16.57;69.34;99353.50;5117200;28;20249;-78
2023/04/16 10:33:39;;;;;;;2.30;2.20;;;;;;;17.47;67.48;99356.69;5117439;28;20685;-79
2023/04/16 10:36:10;;;;;;;2.47;2.20;;;;;;;17.22;65.62;99359.38;5117027;28;20290;-78
2023/04/16 10:38:39;;;;;;;2.57;2.37;;;;;;;16.91;65.55;99350.38;5116891;28;20666;-79
2023/04/16 10:41:06;;;;;;;2.40;2.20;;;;;;;15.60;67.86;99348.66;5099573;28;20230;-78
2023/04/16 10:43:39;;;;;;;2.43;2.23;;;;;;;16.21;69.11;99354.44;5117219;28;20191;-78
2023/04/16 10:46:29;;;;;;;2.70;2.50;;;;;;;16.17;67.65;99356.84;5114498;28;20188;-79
2023/04/16 10:49:02;;;;;;;2.73;2.53;;;;;;;16.20;67.86;99356.31;5117438;28;20184;-79
2023/04/16 10:51:31;;;;;;;3.00;2.80;;;;;;;16.16;68.63;99354.41;5109516;28;20198;-79
2023/04/16 10:54:07;;;;;;;2.80;2.60;;;;;;;15.37;67.84;99349.78;5104509;28;20235;-78
2023/04/16 10:56:35;;;;;;;2.37;2.27;;;;;;;16.14;66.92;99353.88;5117409;28;20190;-80
2023/04/16 10:59:05;;;;;;;2.73;2.53;;;;;;;16.41;67.60;99356.44;5116945;27;20597;-78
2023/04/16 11:01:34;;;;;;;2.97;2.77;;;;;;;15.76;68.59;99352.28;5117476;28;20191;-78
2023/04/16 11:04:20;;;;;;;2.67;2.47;;;;;;;15.20;70.89;99359.91;5114646;28;20190;-79
2023/04/16 11:07:06;;;;;;;3.83;2.80;;;;;;;16.06;69.40;99355.16;5115073;28;20609;-79
2023/04/16 11:09:58;;;;;;;4.73;4.27;;;;;;;16.29;68.27;99357.44;5112109;28;20242;-78
2023/04/16 11:12:36;;;;;;;5.00;4.60;;;;;;;16.49;67.41;99358.63;5096798;28;20207;-79
2023/04/16 11:15:08;;;;;;;3.80;3.50;;;;;;;16.62;66.34;99367.06;5116969;28;20202;-79
2023/04/16 11:17:38;;;;;;;2.47;2.30;;;;;;;17.01;65.76;99362.06;5116724;28;20186;-78
2023/04/16 11:20:06;;;;;;;2.83;2.63;;;;;;;17.09;64.38;99364.22;5104408;28;20262;-79
2023/04/16 11:22:47;;;;;;;2.87;2.67;;;;;;;16.76;63.78;99375.50;5116225;28;20217;-79
2023/04/16 11:25:24;;;;;;;2.30;2.10;;;;;;;16.98;63.46;99359.88;5105859;28;20219;-79
2023/04/16 11:27:51;;;;;;;2.53;2.33;;;;;;;17.20;63.53;99365.06;5109214;28;20670;-79
2023/04/16 11:30:27;;;;;;;3.43;3.23;;;;;;;17.23;64.32;99367.22;5099861;28;20664;-78
2023/04/16 11:32:54;;;;;;;2.77;2.57;;;;;;;17.53;64.09;99359.13;5116485;28;20271;-79
2023/04/16 11:35:21;;;;;;;6.20;5.80;;;;;;;16.27;62.83;99365.03;5116240;28;20221;-79